Flight Track Log - Related Links

Times and Time Zones

All times are in EDT time to prevent confusion due to time zone crossing. See the ASQ4577 flight status page for this flight to view local times or setup timezone preferences in your user account.

Time Position Orientation Groundspeed Altitude Reporting Facility
EDT Latitude Longitude Course Direction KTS MPH feet Rate Location/Type
Tue 07:23:19 PM 41.3961 -81.8786 75° East 152 175 1,700  Level Cleveland Center
Tue 07:25:00 PM 41.6451 -81.6050 37° Northeast  Level FlightAware
Tue 07:25:00 PM 41.4539 -81.9269 328° Northwest 221 254 5,500  Level Cleveland Center
Tue 07:26:00 PM 41.7275 -81.5225 37° Northeast  Level FlightAware
Tue 07:26:00 PM 41.5169 -81.8672 35° Northeast 239 275 8,500  Level Cleveland Center
Tue 07:27:00 PM 41.8100 -81.4401 37° Northeast  Level FlightAware
Tue 07:27:00 PM 41.5783 -81.7878 44° Northeast 272 313 10,600  Level Cleveland Center
Tue 07:28:00 PM 41.8460 -81.3200 75° East  Level FlightAware
Tue 07:28:00 PM 41.6503 -81.6836 47° Northeast 308 354 11,900  Level Cleveland Center
Tue 07:29:00 PM 41.7222 -81.5819 47° Northeast 355 409 13,700 1,900 Climbing Cleveland Center
Tue 07:30:00 PM 41.7958 -81.4800 46° Northeast 375 432 15,700 2,050 Climbing Cleveland Center
Tue 07:31:00 PM 41.8489 -81.3553 60° Northeast 375 432 17,800 1,850 Climbing Cleveland Center
Tue 07:32:00 PM 41.8706 -81.2161 78° East 365 420 19,400 1,350 Climbing Cleveland Center
Tue 07:33:00 PM 41.8922 -81.0714 79° East 385 443 20,500 1,100 Climbing Cleveland Center
Tue 07:34:00 PM 41.9136 -80.9208 79° East 402 463 21,600 950 Climbing Cleveland Center
Tue 07:35:00 PM 41.9347 -80.7814 78° East 413 475 22,400 950 Climbing Cleveland Center
Tue 07:36:00 PM 41.9578 -80.6278 79° East 413 475 23,500 1,050 Climbing Cleveland Center
Tue 07:37:00 PM 41.9808 -80.4714 79° East 413 475 24,500 1,050 Climbing Cleveland Center
Tue 07:38:00 PM 42.0033 -80.3150 79° East 419 482 25,600 1,050 Climbing Cleveland Center
Tue 07:39:00 PM 42.0281 -80.1528 78° East 435 501 26,600 1,000 Climbing Cleveland Center
Tue 07:40:00 PM 42.0503 -79.9903 80° East 435 501 27,600 1,300 Climbing Cleveland Center
Tue 07:41:00 PM 42.0722 -79.8336 79° East 435 501 29,200 1,600 Climbing Cleveland Center
Tue 07:42:00 PM 42.0939 -79.6822 79° East 424 488 30,800 900 Climbing Cleveland Center
Tue 07:43:00 PM 42.1175 -79.5028 80° East 425 489 31,000 100 Climbing Cleveland Center
Tue 07:44:00 PM 42.1408 -79.3342 79° East 439 505 31,000  Level Cleveland Center
Tue 07:45:00 PM 42.1639 -79.1631 80° East 451 519 31,000  Level Cleveland Center
Tue 07:46:00 PM 42.1867 -78.9944 80° East 456 525 31,000  Level Cleveland Center
Tue 07:47:00 PM 42.2114 -78.8228 79° East 456 525 31,000  Level Cleveland Center
Tue 07:48:00 PM 42.2336 -78.6539 80° East 456 525 31,000  Level Cleveland Center
Tue 07:49:00 PM 42.2536 -78.4819 81° East 456 525 31,000  Level Cleveland Center
Tue 07:50:00 PM 42.2733 -78.3131 81° East 456 525 31,000  Level Cleveland Center
Tue 07:51:00 PM 42.2947 -78.1467 80° East 456 525 31,000 -150 Level Cleveland Center
Tue 07:52:00 PM 42.3161 -77.9772 80° East 451 519 30,700 -650 Descending Cleveland Center
Tue 07:53:00 PM 42.3356 -77.8303 80° East 446 513 29,700 -850 Descending Cleveland Center
Tue 07:54:00 PM 42.3544 -77.6667 81° East 446 513 29,000 -350 Descending Cleveland Center
Tue 07:55:00 PM 42.3733 -77.5056 81° East 446 513 29,000 -200 Level Cleveland Center
Tue 07:56:00 PM 42.3919 -77.3472 81° East 434 499 28,600 -745 Descending Cleveland Center
Tue 07:57:41 PM 42.4281 -77.0428 81° East 445 512 27,000 -596 Descending Boston Center
Tue 07:58:41 PM 42.4475 -76.8694 81° East 457 526 27,000  Level Boston Center
Tue 07:59:41 PM 42.4664 -76.6992 81° East 462 532 27,000  Level Boston Center
Tue 08:00:41 PM 42.4875 -76.5231 81° East 462 532 27,000  Level Boston Center
Tue 08:01:41 PM 42.5431 -76.3689 64° Northeast 456 525 27,000 -250 Level Boston Center
Tue 08:02:41 PM 42.5958 -76.2256 63° Northeast 465 535 26,500 -750 Descending Boston Center
Tue 08:03:41 PM 42.6489 -76.0706 65° Northeast 465 535 25,500 -1,050 Descending Boston Center
Tue 08:04:41 PM 42.7033 -75.9239 63° Northeast 448 516 24,400 -1,600 Descending Boston Center
Tue 08:05:41 PM 42.7497 -75.7683 68° East 437 503 22,300 -2,050 Descending Boston Center
Tue 08:06:41 PM 42.7567 -75.6017 87° East 432 497 20,300 -2,050 Descending Boston Center
Tue 08:07:41 PM 42.7567 -75.4461 90° East 426 490 18,200 -2,000 Descending Boston Center
Tue 08:08:41 PM 42.7564 -75.2933 90° East 404 465 16,300 -1,545 Descending Boston Center
Tue 08:09:53 PM 42.7558 -75.1464 90° East 399 459 14,800 -1,471 Descending Boston Center
Tue 08:10:23 PM 42.7567 -75.0219 89° East 398 458 13,800 -1,700 Descending Boston Center
Tue 08:10:53 PM 42.7558 -74.9681 91° East 394 453 13,100 -1,364 Descending Boston Center
Tue 08:11:29 PM 42.7558 -74.8719 90° East 383 441 12,300 -1,113 Descending Boston Center
Tue 08:12:30 PM 42.7564 -74.7447 90° East 316 364 11,300 -542 Descending Boston Center
Tue 08:13:53 PM 42.7536 -74.5692 91° East 323 372 11,000 -94 Descending Boston Center
Tue 08:14:37 PM 42.7531 -74.4789 90° East 330 380 11,100 -400 Climbing Boston Center
Tue 08:15:38 PM 42.7822 -74.3667 70° East 304 350 10,300 -1,388 Descending Boston Center
Tue 08:16:38 PM 42.8089 -74.2628 71° East 291 335 8,300 -1,835 Descending Boston Center
Tue 08:17:39 PM 42.8356 -74.1586 71° East 289 333 6,600 -1,623 Descending Boston Center
Tue 08:18:40 PM 42.8619 -74.0631 69° East 268 308 5,000 -1,537 Descending Boston Center
Tue 08:19:40 PM 42.8819 -73.9644 74° East 259 298 3,500 -1,113 Descending Boston Center
Tue 08:20:17 PM 42.8867 -73.9333 78° East 256 295 3,200 -742 Descending Boston Center
Tue 08:21:17 PM 42.8817 -73.8342 94° East 212 244 2,300 -650 Descending Boston Center
Tue 08:22:17 PM 42.8464 -73.8106 154° Southeast 169 194 1,900 7,850 Descending Boston Center
Tue 08:23:17 PM 42.8244 -73.7339 111° Southeast 169 194 18,000 16,100 Climbing Boston Center

Login

Don't have an account? Register now (free) for customized features, flight alerts, and more!